createdAt,value
2022-08-03T00:03:31.262Z,19.50
2022-08-03T00:08:33.139Z,19.50
2022-08-03T00:13:42.082Z,19.50
2022-08-03T00:18:43.958Z,19.40
2022-08-03T00:23:52.420Z,19.40
2022-08-03T00:28:54.797Z,19.30
2022-08-03T00:33:58.244Z,19.20
2022-08-03T00:39:01.681Z,19.10
2022-08-03T00:44:03.761Z,18.90
2022-08-03T00:49:08.221Z,18.90
2022-08-03T00:54:10.459Z,18.80
2022-08-03T00:59:12.761Z,18.90
2022-08-03T01:04:16.236Z,18.80
2022-08-03T01:09:38.698Z,18.90
2022-08-03T01:14:47.134Z,18.80
2022-08-03T01:20:07.132Z,18.80
2022-08-03T01:25:32.457Z,18.60
2022-08-03T01:30:36.782Z,18.60
2022-08-03T01:35:55.825Z,18.50
2022-08-03T01:40:58.019Z,18.40
2022-08-03T01:46:00.374Z,18.40
2022-08-03T01:51:02.491Z,18.30
2022-08-03T01:56:06.077Z,18.30
2022-08-03T02:01:09.310Z,18.20
2022-08-03T02:07:00.259Z,18.20
2022-08-03T02:11:35.774Z,18.10
2022-08-03T02:16:37.665Z,18.10
2022-08-03T02:21:56.511Z,18.00
2022-08-03T02:27:02.189Z,18.00
2022-08-03T02:32:04.629Z,17.90
2022-08-03T02:37:07.472Z,17.80
2022-08-03T02:42:12.041Z,17.70
2022-08-03T02:47:15.799Z,17.70
2022-08-03T02:52:18.407Z,17.60
2022-08-03T02:57:21.859Z,17.60
2022-08-03T03:02:24.265Z,17.60
2022-08-03T03:07:26.934Z,17.50
2022-08-03T03:12:36.405Z,17.50
2022-08-03T03:17:39.268Z,17.50
2022-08-03T03:22:41.518Z,17.50
2022-08-03T03:27:49.572Z,17.40
2022-08-03T03:32:53.726Z,17.40
2022-08-03T03:37:55.699Z,17.40
2022-08-03T03:42:57.637Z,17.40
2022-08-03T03:48:00.719Z,17.30
2022-08-03T03:53:04.125Z,17.20
2022-08-03T03:58:06.374Z,17.20
2022-08-03T04:03:11.030Z,17.20
2022-08-03T04:08:34.045Z,17.10
2022-08-03T04:13:42.207Z,17.00
2022-08-03T04:18:48.550Z,16.90
2022-08-03T04:23:53.474Z,17.00
2022-08-03T04:28:55.642Z,17.00
2022-08-03T04:33:57.815Z,17.10
2022-08-03T04:39:03.730Z,17.20
2022-08-03T04:44:06.637Z,17.20
2022-08-03T04:49:09.383Z,17.30
2022-08-03T04:54:13.942Z,17.40
2022-08-03T04:59:17.710Z,17.50
2022-08-03T05:04:20.567Z,17.50
2022-08-03T05:09:50.826Z,17.70
2022-08-03T05:14:44.854Z,17.90
2022-08-03T05:19:46.657Z,18.40
2022-08-03T05:24:48.913Z,18.80
2022-08-03T05:29:51.218Z,19.40
2022-08-03T05:34:53.219Z,19.90
2022-08-03T05:39:55.075Z,20.50
2022-08-03T05:44:57.097Z,21.10
2022-08-03T05:49:58.968Z,21.80
2022-08-03T05:55:00.789Z,22.40
2022-08-03T06:00:05.432Z,22.90
2022-08-03T06:05:08.658Z,23.50
2022-08-03T06:10:36.451Z,24.00
2022-08-03T06:15:33.426Z,24.50
2022-08-03T06:20:35.295Z,24.90
2022-08-03T06:25:37.219Z,25.20
2022-08-03T06:30:41.293Z,25.40
2022-08-03T06:35:45.213Z,25.70
2022-08-03T06:40:47.160Z,26.20
2022-08-03T06:45:52.804Z,26.50
2022-08-03T06:50:54.710Z,27.00
2022-08-03T06:55:58.064Z,27.40
2022-08-03T07:01:00.346Z,27.50
2022-08-03T07:06:02.234Z,27.80
2022-08-03T07:11:05.373Z,28.00
2022-08-03T07:16:07.234Z,28.40
2022-08-03T07:21:11.034Z,28.90
2022-08-03T07:26:13.206Z,29.20
2022-08-03T07:31:15.045Z,29.60
2022-08-03T07:36:17.300Z,30.00
2022-08-03T07:41:19.147Z,30.10
2022-08-03T07:46:21.035Z,30.30
2022-08-03T07:51:22.912Z,30.70
2022-08-03T07:56:27.307Z,31.30
2022-08-03T08:01:29.809Z,31.20
2022-08-03T08:06:32.726Z,31.20
2022-08-03T08:11:39.665Z,31.30
2022-08-03T08:16:41.869Z,31.60
2022-08-03T08:21:53.561Z,31.90
2022-08-03T08:27:04.007Z,31.80
2022-08-03T08:32:06.411Z,31.90
2022-08-03T08:37:08.461Z,31.70
2022-08-03T08:42:10.504Z,31.80
2022-08-03T08:47:12.591Z,32.30
2022-08-03T08:52:24.889Z,32.30
2022-08-03T08:57:43.221Z,32.60
2022-08-03T09:02:46.419Z,32.50
2022-08-03T09:07:48.769Z,32.70
2022-08-03T09:12:53.586Z,33.10
2022-08-03T09:17:56.826Z,33.20
2022-08-03T09:23:44.731Z,33.20
2022-08-03T09:28:59.477Z,33.20
2022-08-03T09:34:00.950Z,33.60
2022-08-03T09:39:07.657Z,33.70
2022-08-03T09:44:24.129Z,33.90
2022-08-03T09:49:27.885Z,34.00
2022-08-03T09:54:31.562Z,34.10
2022-08-03T09:59:35.105Z,34.20
2022-08-03T10:04:47.905Z,34.40
2022-08-03T10:09:58.665Z,34.70
2022-08-03T10:16:22.720Z,34.40
2022-08-03T10:20:50.196Z,34.20
2022-08-03T10:25:55.427Z,34.60
2022-08-03T10:30:57.391Z,34.30
2022-08-03T10:36:00.198Z,34.60
2022-08-03T10:41:02.265Z,34.30
2022-08-03T10:46:07.298Z,34.70
2022-08-03T10:51:09.358Z,35.20
2022-08-03T10:56:51.406Z,35.30
2022-08-03T11:01:59.168Z,34.90
2022-08-03T11:07:22.470Z,34.00
2022-08-03T11:12:30.017Z,33.80
2022-08-03T11:17:46.228Z,34.00
2022-08-03T11:22:58.828Z,34.40
2022-08-03T11:28:30.531Z,34.60
2022-08-03T11:33:32.680Z,34.90
2022-08-03T11:38:34.603Z,34.70
2022-08-03T11:43:37.703Z,34.90
2022-08-03T11:48:43.139Z,34.60
2022-08-03T11:53:47.729Z,34.60
2022-08-03T11:59:16.737Z,34.60
2022-08-03T12:04:16.387Z,34.30
2022-08-03T12:09:18.430Z,34.40
2022-08-03T12:14:48.419Z,34.60
2022-08-03T12:19:45.445Z,35.20
2022-08-03T12:24:47.878Z,35.00
2022-08-03T12:29:58.638Z,34.30
2022-08-03T12:35:01.927Z,34.00
2022-08-03T12:40:10.071Z,33.20
2022-08-03T12:45:20.565Z,33.20
2022-08-03T12:50:33.501Z,33.00
2022-08-03T12:55:56.686Z,32.50
2022-08-03T13:01:01.006Z,32.10
2022-08-03T13:06:17.456Z,31.90
2022-08-03T13:11:19.349Z,32.80
2022-08-03T13:16:22.653Z,33.40
2022-08-03T13:21:24.482Z,34.10
2022-08-03T13:26:26.315Z,34.30
2022-08-03T13:31:28.274Z,34.00
2022-08-03T13:36:30.592Z,33.20
2022-08-03T13:41:44.698Z,32.60
2022-08-03T13:46:47.432Z,32.10
2022-08-03T13:51:49.312Z,32.00
2022-08-03T13:56:57.769Z,32.60
2022-08-03T14:02:02.279Z,33.20
2022-08-03T14:07:04.949Z,33.80
2022-08-03T14:12:08.952Z,34.30
2022-08-03T14:17:11.085Z,34.30
2022-08-03T14:22:13.925Z,34.00
2022-08-03T14:27:15.914Z,33.90
2022-08-03T14:32:17.769Z,33.50
2022-08-03T14:37:19.807Z,33.60
2022-08-03T14:42:21.805Z,33.60
2022-08-03T14:47:24.280Z,33.60
2022-08-03T14:52:26.213Z,33.60
2022-08-03T14:57:28.078Z,33.50
2022-08-03T15:02:30.499Z,33.40
2022-08-03T15:07:32.457Z,33.30
2022-08-03T15:12:34.417Z,33.10
2022-08-03T15:17:36.401Z,32.90
2022-08-03T15:22:42.364Z,32.50
2022-08-03T15:28:03.649Z,32.30
2022-08-03T15:33:06.626Z,32.00
2022-08-03T15:38:09.777Z,32.00
2022-08-03T15:43:12.493Z,32.10
2022-08-03T15:48:14.560Z,32.10
2022-08-03T15:53:17.323Z,32.10
2022-08-03T15:59:09.295Z,31.90
2022-08-03T16:03:40.996Z,31.80
2022-08-03T16:08:42.945Z,31.60
2022-08-03T16:14:13.154Z,31.50
2022-08-03T16:19:06.854Z,31.30
2022-08-03T16:24:09.144Z,31.10
2022-08-03T16:29:22.578Z,31.00
2022-08-03T16:34:25.302Z,30.80
2022-08-03T16:39:27.332Z,30.70
2022-08-03T16:44:30.739Z,30.50
2022-08-03T16:49:54.593Z,30.30
2022-08-03T16:54:54.979Z,30.20
2022-08-03T16:59:56.837Z,30.00
2022-08-03T17:04:59.276Z,29.90
2022-08-03T17:10:01.821Z,29.70
2022-08-03T17:15:04.753Z,29.50
2022-08-03T17:20:14.855Z,29.30
2022-08-03T17:25:22.032Z,29.20
2022-08-03T17:30:58.408Z,29.10
2022-08-03T17:36:01.946Z,28.90
2022-08-03T17:41:10.844Z,28.80
2022-08-03T17:46:14.034Z,28.60
2022-08-03T17:51:20.429Z,28.40
2022-08-03T17:56:44.970Z,28.30
2022-08-03T18:02:30.585Z,28.10
2022-08-03T18:07:40.875Z,27.90
2022-08-03T18:12:55.050Z,27.70
2022-08-03T18:18:10.538Z,27.30
2022-08-03T18:23:24.771Z,27.10
2022-08-03T18:28:36.239Z,26.90
2022-08-03T18:34:19.776Z,26.60
2022-08-03T18:44:45.598Z,26.10
2022-08-03T18:50:13.527Z,25.90
2022-08-03T18:55:35.445Z,25.70
2022-08-03T19:00:54.250Z,25.40
2022-08-03T19:06:13.275Z,25.20
2022-08-03T19:12:25.969Z,25.00
2022-08-03T19:17:14.070Z,24.80
2022-08-03T19:22:27.130Z,24.60
2022-08-03T19:27:31.101Z,24.50
2022-08-03T19:32:34.757Z,24.30
2022-08-03T19:37:40.147Z,24.20
2022-08-03T19:42:47.030Z,24.10
2022-08-03T19:47:52.527Z,23.90
2022-08-03T19:52:56.939Z,23.80
2022-08-03T19:58:01.127Z,23.50
2022-08-03T20:03:03.161Z,23.40
2022-08-03T20:08:07.088Z,23.30
2022-08-03T20:13:13.218Z,23.10
2022-08-03T20:18:21.221Z,23.00
2022-08-03T20:23:24.311Z,22.80
2022-08-03T20:28:50.562Z,22.70
2022-08-03T20:33:53.208Z,22.60
2022-08-03T20:38:57.996Z,22.40
2022-08-03T20:44:00.972Z,22.30
2022-08-03T20:49:04.163Z,22.30
2022-08-03T20:54:09.648Z,22.20
2022-08-03T20:59:38.478Z,22.10
2022-08-03T21:04:49.564Z,21.90
2022-08-03T21:09:55.501Z,21.70
2022-08-03T21:12:58.867Z,26.40
2022-08-03T21:15:04.945Z,21.60
2022-08-03T21:20:09.088Z,21.50
2022-08-03T21:25:14.469Z,21.50
2022-08-03T21:30:16.659Z,21.40
2022-08-03T21:35:19.741Z,21.30
2022-08-03T21:40:24.728Z,21.20
2022-08-03T21:45:26.669Z,21.20
2022-08-03T21:50:29.270Z,21.10
2022-08-03T21:55:31.517Z,21.00
2022-08-03T22:00:34.079Z,20.90
2022-08-03T22:05:43.708Z,20.80
2022-08-03T22:10:47.555Z,20.70
2022-08-03T22:15:49.673Z,20.60
2022-08-03T22:20:52.039Z,20.50
2022-08-03T22:25:56.049Z,20.40
2022-08-03T22:30:59.161Z,20.30
2022-08-03T22:36:23.557Z,20.20
2022-08-03T22:41:27.807Z,20.10
2022-08-03T22:46:31.089Z,20.00
2022-08-03T22:51:33.727Z,20.00
2022-08-03T22:56:37.739Z,20.00
2022-08-03T23:01:42.633Z,19.90
2022-08-03T23:06:45.711Z,19.90
2022-08-03T23:11:48.207Z,19.90
2022-08-03T23:16:51.057Z,19.80
2022-08-03T23:22:02.226Z,19.70
2022-08-03T23:27:06.903Z,19.60
2022-08-03T23:32:10.118Z,19.60
2022-08-03T23:37:14.889Z,19.50
2022-08-03T23:42:19.454Z,19.40
2022-08-03T23:47:21.605Z,19.40
2022-08-03T23:52:30.066Z,19.30
2022-08-03T23:58:10.913Z,19.30
